Time;durP1;ratioP1;P1;durP2;ratioP2;P2;SDS_P1;SDS_P2;PMS_P1;PMS_P2;Temp;Humidity;BMP_temperature;BMP_pressure;BME280_temperature;BME280_humidity;BME280_pressure;Samples;Min_cycle;Max_cycle;Signal;HPM_P1;HPM_P2
2022/06/27 00:00:46;;;;;;;9.40;4.90;;;;;;;22.59;54.26;100219.19;4208799;28;20642;-64
2022/06/27 00:03:13;;;;;;;8.20;4.60;;;;;;;22.60;54.10;100218.16;4215757;28;20783;-66
2022/06/27 00:05:43;;;;;;;8.07;5.07;;;;;;;22.55;54.66;100215.31;4220015;28;20244;-65
2022/06/27 00:08:09;;;;;;;11.97;5.00;;;;;;;22.49;54.72;100218.91;4210332;28;21691;-65
2022/06/27 00:10:37;;;;;;;8.03;4.70;;;;;;;22.51;54.49;100219.53;4199923;28;21775;-67
2022/06/27 00:13:04;;;;;;;7.40;4.67;;;;;;;22.48;54.59;100211.84;4202449;28;20231;-66
2022/06/27 00:15:31;;;;;;;7.73;5.40;;;;;;;22.43;54.80;100209.81;4221981;28;20453;-67
2022/06/27 00:17:57;;;;;;;11.90;4.97;;;;;;;22.34;55.27;100212.00;4217596;28;20288;-66
2022/06/27 00:20:24;;;;;;;9.30;5.17;;;;;;;22.32;55.55;100213.31;4219631;28;20236;-65
2022/06/27 00:22:52;;;;;;;9.77;4.93;;;;;;;22.35;55.38;100218.25;4226068;28;21056;-67
2022/06/27 00:25:19;;;;;;;12.63;5.43;;;;;;;22.29;55.56;100214.59;4208900;28;20232;-67
2022/06/27 00:27:46;;;;;;;6.47;4.80;;;;;;;22.32;55.60;100218.72;4212430;28;20287;-66
2022/06/27 00:30:12;;;;;;;8.03;5.03;;;;;;;22.27;55.74;100213.97;4211544;28;20308;-68
2022/06/27 00:32:39;;;;;;;9.93;5.20;;;;;;;22.20;55.93;100215.09;4214127;28;22843;-65
2022/06/27 00:35:08;;;;;;;13.23;5.60;;;;;;;22.20;56.13;100215.91;4215256;28;20244;-65
2022/06/27 00:37:35;;;;;;;12.90;5.00;;;;;;;22.22;55.96;100218.41;4213217;28;20397;-66
2022/06/27 00:40:03;;;;;;;12.27;5.23;;;;;;;22.10;56.66;100218.31;4222096;28;21352;-77
2022/06/27 00:42:30;;;;;;;10.10;5.23;;;;;;;22.20;55.97;100215.91;4229102;28;21206;-73
2022/06/27 00:44:56;;;;;;;15.40;5.30;;;;;;;22.28;56.41;100223.75;4230016;28;20239;-75
2022/06/27 00:47:23;;;;;;;9.67;5.40;;;;;;;22.22;56.13;100215.69;4227603;28;20291;-74
2022/06/27 00:49:49;;;;;;;11.90;5.80;;;;;;;22.32;56.12;100230.38;4236278;28;20240;-73
2022/06/27 00:52:16;;;;;;;9.20;5.30;;;;;;;22.25;56.04;100218.81;4206069;28;20242;-75
2022/06/27 00:54:45;;;;;;;9.57;5.57;;;;;;;22.22;56.21;100221.97;4218192;28;20966;-70
2022/06/27 00:57:12;;;;;;;12.60;5.43;;;;;;;22.11;57.08;100228.13;4206284;28;25169;-41
2022/06/27 00:59:40;;;;;;;8.70;5.37;;;;;;;22.05;56.92;100223.59;4233669;28;20371;-41
2022/06/27 01:02:07;;;;;;;8.87;5.43;;;;;;;21.99;57.42;100219.09;4217265;28;20301;-46
2022/06/27 01:04:35;;;;;;;7.57;5.23;;;;;;;22.02;57.11;100216.75;4232486;28;20293;-43
2022/06/27 01:07:05;;;;;;;8.57;5.10;;;;;;;21.97;57.63;100218.47;4219576;28;21925;-47
2022/06/27 01:09:40;;;;;;;10.40;5.47;;;;;;;21.95;57.69;100223.28;4224189;28;20240;-40
2022/06/27 01:12:07;;;;;;;9.90;5.83;;;;;;;21.93;57.64;100218.91;4214082;28;20244;-40
2022/06/27 01:14:34;;;;;;;13.07;5.97;;;;;;;21.85;57.64;100219.22;4210190;28;20244;-41
2022/06/27 01:17:01;;;;;;;10.07;6.10;;;;;;;21.85;57.68;100218.41;4212781;28;20348;-41
2022/06/27 01:19:28;;;;;;;11.83;6.20;;;;;;;21.77;58.04;100211.38;4201247;28;21080;-42
2022/06/27 01:21:56;;;;;;;12.50;6.23;;;;;;;21.73;58.28;100212.91;4226525;28;20799;-40
2022/06/27 01:24:24;;;;;;;9.30;5.77;;;;;;;21.76;58.49;100215.16;4215279;28;20237;-42
2022/06/27 01:26:51;;;;;;;13.30;6.03;;;;;;;21.70;58.74;100216.03;4201965;28;21149;-39
2022/06/27 01:29:19;;;;;;;12.60;5.47;;;;;;;21.67;58.58;100219.19;4216193;28;20276;-41
2022/06/27 01:31:46;;;;;;;8.07;5.27;;;;;;;21.62;58.93;100213.63;4211116;28;20626;-40
2022/06/27 01:34:13;;;;;;;8.47;5.43;;;;;;;21.59;59.05;100214.09;4202448;28;20325;-39
2022/06/27 01:36:43;;;;;;;6.10;5.13;;;;;;;21.58;59.10;100215.94;4228010;28;20231;-39
2022/06/27 01:39:15;;;;;;;11.87;6.20;;;;;;;21.52;59.31;100214.13;4214136;28;20250;-40
2022/06/27 01:41:44;;;;;;;11.97;5.83;;;;;;;21.53;59.36;100206.84;4204213;28;20232;-42
2022/06/27 01:44:12;;;;;;;9.73;6.20;;;;;;;21.52;59.57;100200.59;4223257;28;21026;-39
2022/06/27 01:46:44;;;;;;;13.17;6.50;;;;;;;21.48;59.39;100205.63;4213372;28;20465;-42
2022/06/27 01:49:12;;;;;;;12.03;6.27;;;;;;;21.46;59.37;100202.31;4211742;28;20267;-40
2022/06/27 01:51:40;;;;;;;12.67;6.43;;;;;;;21.60;58.99;100204.91;4210897;28;20240;-38
2022/06/27 01:54:08;;;;;;;11.53;6.47;;;;;;;21.59;58.86;100204.06;4215340;28;20244;-38
2022/06/27 01:56:35;;;;;;;9.93;6.80;;;;;;;21.50;59.92;100202.69;4215633;28;20632;-45
2022/06/27 01:59:02;;;;;;;9.90;7.13;;;;;;;21.48;59.36;100199.38;4209238;28;20233;-39
2022/06/27 02:01:28;;;;;;;10.07;6.30;;;;;;;21.40;60.00;100202.34;4201396;28;20356;-40
2022/06/27 02:03:59;;;;;;;14.67;7.57;;;;;;;21.37;59.82;100206.31;4209601;28;20273;-41
2022/06/27 02:06:27;;;;;;;13.80;7.53;;;;;;;21.44;59.74;100209.81;4211422;28;20242;-39
2022/06/27 02:08:55;;;;;;;8.60;6.50;;;;;;;21.40;59.79;100211.31;4211197;28;22981;-41
2022/06/27 02:11:22;;;;;;;11.17;6.40;;;;;;;21.41;59.92;100209.44;4210683;28;21336;-39
2022/06/27 02:13:48;;;;;;;8.93;6.57;;;;;;;21.35;59.86;100213.81;4216414;28;20225;-40
2022/06/27 02:16:17;;;;;;;13.73;6.50;;;;;;;21.41;59.96;100210.25;4212536;28;20538;-40
2022/06/27 02:18:44;;;;;;;11.37;6.43;;;;;;;21.41;60.00;100212.16;4217597;28;22834;-40
2022/06/27 02:21:13;;;;;;;9.10;6.10;;;;;;;21.34;60.31;100208.66;4209919;28;20220;-40
2022/06/27 02:23:40;;;;;;;9.47;5.70;;;;;;;21.39;60.02;100215.03;4209642;28;20232;-42
2022/06/27 02:26:07;;;;;;;9.17;5.83;;;;;;;21.34;60.15;100214.06;4213463;28;20240;-41
2022/06/27 02:28:34;;;;;;;14.03;6.03;;;;;;;21.34;60.32;100216.75;4188881;28;20317;-40
2022/06/27 02:31:01;;;;;;;12.07;5.80;;;;;;;21.29;60.67;100222.84;4241561;28;20292;-40
2022/06/27 02:33:39;;;;;;;9.80;6.10;;;;;;;21.26;60.65;100223.28;4270975;28;21262;-40
2022/06/27 02:36:08;;;;;;;9.47;5.80;;;;;;;21.29;60.42;100220.13;4236008;28;20251;-42
2022/06/27 02:38:36;;;;;;;11.13;6.10;;;;;;;21.24;60.90;100225.38;4221400;28;23761;-40
2022/06/27 02:41:05;;;;;;;10.40;5.47;;;;;;;21.22;60.85;100227.47;4220779;28;20234;-41
2022/06/27 02:43:33;;;;;;;10.77;5.30;;;;;;;21.25;61.02;100229.72;4266426;28;20331;-39
2022/06/27 02:46:00;;;;;;;10.80;5.70;;;;;;;21.17;61.07;100227.31;4236320;28;20229;-42
2022/06/27 02:48:27;;;;;;;11.63;5.53;;;;;;;21.07;61.38;100234.03;4228618;28;20240;-40
2022/06/27 02:50:56;;;;;;;8.50;5.53;;;;;;;21.06;61.88;100223.44;4266387;28;20306;-41
2022/06/27 02:53:27;;;;;;;8.13;5.53;;;;;;;21.11;61.53;100229.00;4233630;28;20240;-41
2022/06/27 02:55:54;;;;;;;9.00;5.00;;;;;;;21.07;61.84;100230.47;4248106;28;21577;-41
2022/06/27 02:58:37;;;;;;;7.27;5.17;;;;;;;21.10;61.59;100231.94;4216927;28;20244;-41
2022/06/27 03:01:05;;;;;;;8.10;5.30;;;;;;;21.14;61.04;100238.56;4233764;28;20429;-42
2022/06/27 03:03:32;;;;;;;8.93;5.47;;;;;;;21.09;61.82;100231.09;4198658;28;20242;-43
2022/06/27 03:06:01;;;;;;;8.83;5.30;;;;;;;21.12;61.64;100229.81;4202899;28;20240;-42
2022/06/27 03:08:37;;;;;;;13.40;5.83;;;;;;;21.13;61.69;100236.91;4214275;28;20320;-45
2022/06/27 03:11:04;;;;;;;12.63;6.20;;;;;;;21.12;61.70;100237.94;4243493;28;21117;-40
2022/06/27 03:13:31;;;;;;;11.50;5.83;;;;;;;21.14;62.04;100241.25;4238193;28;20274;-41
2022/06/27 03:15:58;;;;;;;11.00;5.90;;;;;;;21.22;61.30;100244.53;4196109;28;21078;-41
2022/06/27 03:18:25;;;;;;;7.70;5.40;;;;;;;21.25;61.78;100240.56;4215342;28;20236;-42
2022/06/27 03:20:52;;;;;;;9.53;5.73;;;;;;;21.36;61.09;100247.97;4201313;28;20226;-44
2022/06/27 03:23:18;;;;;;;11.03;5.37;;;;;;;21.33;60.89;100252.97;4205712;28;20603;-39
2022/06/27 03:25:46;;;;;;;9.97;5.70;;;;;;;21.32;61.32;100245.94;4201487;28;25416;-40
2022/06/27 03:28:12;;;;;;;12.50;5.97;;;;;;;21.35;61.15;100243.59;4212368;28;20277;-41
2022/06/27 03:30:39;;;;;;;12.57;6.20;;;;;;;21.37;61.64;100246.91;4204731;28;21362;-40
2022/06/27 03:33:06;;;;;;;12.33;5.57;;;;;;;21.46;60.57;100250.22;4182369;28;20246;-41
2022/06/27 03:35:33;;;;;;;12.37;5.93;;;;;;;21.44;60.48;100245.00;4196447;28;23093;-41
2022/06/27 03:37:59;;;;;;;11.77;6.67;;;;;;;21.52;60.39;100248.47;4188813;28;20279;-40
2022/06/27 03:40:26;;;;;;;11.77;6.67;;;;;;;21.44;60.29;100255.84;4192675;28;20612;-41
2022/06/27 03:42:54;;;;;;;11.97;6.87;;;;;;;21.56;60.18;100247.81;4224020;28;20526;-40
2022/06/27 03:45:20;;;;;;;11.23;6.13;;;;;;;21.62;60.29;100251.53;4181062;28;20234;-40
2022/06/27 03:47:55;;;;;;;10.70;6.20;;;;;;;21.77;59.49;100251.19;4212915;28;20233;-39
2022/06/27 03:50:23;;;;;;;13.40;7.10;;;;;;;21.82;59.38;100252.19;4193067;28;20289;-38
2022/06/27 03:52:51;;;;;;;12.50;7.00;;;;;;;21.90;58.73;100254.59;4197652;28;20584;-40
2022/06/27 03:55:18;;;;;;;12.20;6.50;;;;;;;22.03;58.00;100252.78;4191659;28;20237;-40
2022/06/27 03:57:55;;;;;;;13.10;6.07;;;;;;;22.03;58.62;100255.50;4192549;28;20659;-41
2022/06/27 04:00:27;;;;;;;10.97;6.40;;;;;;;22.09;58.72;100258.16;4195790;28;20236;-39
2022/06/27 04:02:53;;;;;;;11.83;6.70;;;;;;;22.23;57.83;100258.84;4221271;28;20252;-41
2022/06/27 04:05:20;;;;;;;10.53;6.33;;;;;;;22.29;57.55;100255.25;4200948;28;20259;-40
2022/06/27 04:07:46;;;;;;;13.70;6.77;;;;;;;22.34;57.69;100251.88;4230971;28;20235;-41
2022/06/27 04:10:13;;;;;;;12.60;7.00;;;;;;;22.39;57.44;100245.75;4203715;28;23709;-39
2022/06/27 04:12:43;;;;;;;10.50;5.90;;;;;;;22.47;56.38;100253.56;4204804;28;20241;-40
2022/06/27 04:15:11;;;;;;;9.97;6.20;;;;;;;22.63;56.22;100252.94;4197751;28;26457;-38
2022/06/27 04:17:38;;;;;;;15.97;6.00;;;;;;;22.65;56.16;100256.25;4201771;28;20229;-40
2022/06/27 04:20:06;;;;;;;12.07;5.90;;;;;;;22.69;56.46;100265.59;4230330;28;20305;-41
2022/06/27 04:22:33;;;;;;;8.63;5.10;;;;;;;22.89;55.32;100264.50;4226374;28;20297;-41
2022/06/27 04:25:00;;;;;;;10.13;5.17;;;;;;;22.95;54.72;100261.69;4195584;28;20639;-40
2022/06/27 04:27:27;;;;;;;13.10;5.33;;;;;;;22.93;54.96;100262.97;4240231;28;21087;-42
2022/06/27 04:29:54;;;;;;;8.77;4.60;;;;;;;23.05;54.59;100265.75;4217470;28;23713;-41
2022/06/27 04:32:22;;;;;;;8.70;4.80;;;;;;;23.26;53.96;100272.53;4223557;28;20237;-40
2022/06/27 04:34:49;;;;;;;9.77;5.47;;;;;;;23.33;53.46;100271.38;4197370;28;20612;-40
2022/06/27 04:37:18;;;;;;;10.77;4.73;;;;;;;23.38;53.62;100276.09;4209161;28;20304;-41
2022/06/27 04:39:45;;;;;;;11.13;5.20;;;;;;;23.46;53.52;100273.06;4207551;28;23611;-39
2022/06/27 04:42:12;;;;;;;9.43;5.43;;;;;;;23.34;53.44;100274.91;4201396;28;20233;-40
2022/06/27 04:44:43;;;;;;;12.10;5.50;;;;;;;23.32;53.73;100269.72;4198203;28;22884;-42
2022/06/27 04:47:12;;;;;;;9.40;4.93;;;;;;;23.63;53.10;100289.50;4216171;28;20867;-42
2022/06/27 04:49:41;;;;;;;8.93;5.30;;;;;;;23.85;52.32;100295.19;4193060;28;20337;-39
2022/06/27 04:52:08;;;;;;;16.40;5.20;;;;;;;23.90;52.22;100289.88;4173928;28;20233;-43
2022/06/27 04:54:35;;;;;;;12.43;5.57;;;;;;;23.73;52.57;100292.44;4176637;28;20739;-40
2022/06/27 04:57:03;;;;;;;13.23;5.17;;;;;;;23.80;52.77;100290.47;4186715;28;20422;-46
2022/06/27 04:59:30;;;;;;;13.27;5.53;;;;;;;23.80;52.61;100293.19;4184800;28;20239;-42
2022/06/27 05:01:56;;;;;;;14.00;5.80;;;;;;;23.90;52.48;100286.34;4210477;28;20740;-43
2022/06/27 05:04:23;;;;;;;14.73;5.63;;;;;;;23.84;52.39;100290.84;4220291;28;21730;-42
2022/06/27 05:06:50;;;;;;;14.17;5.27;;;;;;;23.86;52.30;100287.88;4198842;28;20303;-41
2022/06/27 05:09:17;;;;;;;9.53;5.60;;;;;;;23.99;51.86;100288.47;4212080;28;20386;-41
2022/06/27 05:11:46;;;;;;;12.13;4.70;;;;;;;24.14;51.51;100292.56;4221584;28;21098;-41
2022/06/27 05:14:13;;;;;;;12.47;5.03;;;;;;;24.30;51.86;100300.00;4200334;28;20345;-41
2022/06/27 05:16:39;;;;;;;9.60;4.60;;;;;;;24.41;51.34;100296.44;4232141;28;20262;-38
2022/06/27 05:19:06;;;;;;;12.90;4.83;;;;;;;24.51;50.53;100305.91;4220906;28;20229;-41
2022/06/27 05:21:42;;;;;;;13.37;5.10;;;;;;;24.85;49.83;100304.97;4215157;28;20240;-40
2022/06/27 05:24:09;;;;;;;11.10;4.47;;;;;;;25.33;49.04;100310.22;4199422;28;23362;-43
2022/06/27 05:26:36;;;;;;;16.07;4.60;;;;;;;25.62;47.47;100319.19;4220463;28;20231;-42
2022/06/27 05:29:03;;;;;;;11.00;4.53;;;;;;;26.02;45.63;100315.47;4226393;28;20243;-39
2022/06/27 05:31:30;;;;;;;8.70;4.23;;;;;;;26.54;44.77;100326.03;4249775;28;21679;-40
2022/06/27 05:33:56;;;;;;;10.00;4.47;;;;;;;27.04;42.77;100326.88;4208639;28;20469;-41
2022/06/27 05:36:23;;;;;;;9.10;4.20;;;;;;;27.35;41.67;100334.34;4227496;28;23632;-41
2022/06/27 05:38:49;;;;;;;11.27;4.15;;;;;;;27.91;40.68;100347.69;4211013;28;20693;-41
2022/06/27 05:41:17;;;;;;;10.15;4.57;;;;;;;28.46;39.16;100355.69;4209620;28;20504;-41
2022/06/27 05:43:43;;;;;;;12.07;4.15;;;;;;;28.52;38.31;100354.66;4205050;28;20309;-43
2022/06/27 05:46:10;;;;;;;8.13;4.10;;;;;;;29.08;37.27;100356.81;4206621;28;20302;-41
2022/06/27 05:48:37;;;;;;;9.57;3.72;;;;;;;29.70;36.18;100357.75;4188447;28;21352;-40
2022/06/27 05:51:04;;;;;;;16.05;3.75;;;;;;;30.15;34.96;100372.53;4221494;28;20662;-41
2022/06/27 05:53:32;;;;;;;11.65;4.05;;;;;;;29.90;35.37;100362.41;4217680;28;20228;-42
2022/06/27 05:56:00;;;;;;;10.75;4.10;;;;;;;29.56;35.58;100354.69;4217054;28;20263;-41
2022/06/27 05:58:27;;;;;;;16.67;4.28;;;;;;;29.70;34.60;100355.81;4187396;28;20240;-43
2022/06/27 06:00:54;;;;;;;9.88;3.63;;;;;;;30.50;33.93;100361.47;4195203;28;20238;-44
2022/06/27 06:03:20;;;;;;;7.45;3.80;;;;;;;30.97;32.85;100375.88;4192148;28;20308;-41
2022/06/27 06:05:48;;;;;;;7.03;3.00;;;;;;;32.16;30.65;100374.75;4188285;28;20251;-40
2022/06/27 06:08:16;;;;;;;9.43;4.22;;;;;;;31.91;30.74;100369.47;4224260;28;20236;-42
2022/06/27 06:10:43;;;;;;;8.90;3.75;;;;;;;31.96;30.48;100373.03;4217840;28;20245;-44
2022/06/27 06:13:09;;;;;;;16.55;3.88;;;;;;;32.95;29.90;100376.38;4187999;28;20240;-72
2022/06/27 06:15:38;;;;;;;9.45;3.63;;;;;;;33.76;27.49;100381.81;4185481;28;25137;-73
2022/06/27 06:18:05;;;;;;;10.20;3.42;;;;;;;33.68;27.82;100388.84;4211527;28;21316;-73
2022/06/27 06:20:32;;;;;;;12.80;4.13;;;;;;;34.30;27.82;100396.09;4192813;28;20242;-73
2022/06/27 06:22:59;;;;;;;9.65;3.55;;;;;;;35.10;25.52;100411.38;4195773;28;21607;-75
2022/06/27 06:25:27;;;;;;;10.15;3.55;;;;;;;35.09;25.17;100401.41;4189321;28;21110;-72
2022/06/27 06:27:56;;;;;;;6.20;3.25;;;;;;;35.06;25.36;100404.81;4189955;28;20233;-73
2022/06/27 06:30:24;;;;;;;10.02;3.38;;;;;;;36.00;24.01;100413.44;4172635;28;20533;-72
2022/06/27 06:32:50;;;;;;;10.18;3.20;;;;;;;36.80;23.27;100417.09;4197000;28;20766;-71
2022/06/27 06:35:17;;;;;;;10.43;3.17;;;;;;;37.20;22.47;100419.81;4207790;28;21613;-71
2022/06/27 06:37:44;;;;;;;11.07;3.33;;;;;;;37.62;21.71;100417.41;4205272;28;20224;-72
2022/06/27 06:40:15;;;;;;;7.63;3.25;;;;;;;36.55;23.03;100416.69;4182556;28;20322;-73
2022/06/27 06:42:41;;;;;;;13.20;3.47;;;;;;;37.05;23.03;100418.31;4197744;28;20241;-72
2022/06/27 06:45:09;;;;;;;13.68;3.30;;;;;;;37.70;22.69;100416.59;4202138;28;20318;-73
2022/06/27 06:47:42;;;;;;;7.45;3.05;;;;;;;38.04;20.71;100425.22;4185093;28;21615;-74
2022/06/27 06:50:10;;;;;;;10.32;3.03;;;;;;;38.37;20.09;100436.56;4166287;28;20415;-73
2022/06/27 06:52:41;;;;;;;5.25;2.97;;;;;;;38.29;20.60;100429.09;4192470;28;20236;-74
2022/06/27 06:55:09;;;;;;;6.00;3.17;;;;;;;38.34;20.44;100431.69;4176472;28;20322;-73
2022/06/27 06:57:38;;;;;;;8.75;2.80;;;;;;;38.22;21.03;100426.81;4201360;28;22677;-73
2022/06/27 07:00:08;;;;;;;4.30;2.55;;;;;;;38.66;20.04;100423.88;4188263;28;20356;-74
2022/06/27 07:02:34;;;;;;;10.60;3.15;;;;;;;38.97;19.29;100432.75;4184940;28;20666;-72
2022/06/27 07:05:03;;;;;;;5.10;2.63;;;;;;;39.38;18.19;100438.69;4180785;28;20297;-73
2022/06/27 07:07:33;;;;;;;6.80;2.70;;;;;;;39.43;18.76;100430.97;4185034;28;21768;-74
2022/06/27 07:10:00;;;;;;;7.50;2.50;;;;;;;38.71;18.83;100420.94;4178300;28;20314;-73
2022/06/27 07:12:29;;;;;;;9.25;2.38;;;;;;;38.31;19.78;100419.28;4173651;28;20261;-72
2022/06/27 07:14:55;;;;;;;8.07;2.80;;;;;;;38.54;20.05;100419.88;4182993;28;20313;-73
2022/06/27 07:17:25;;;;;;;7.95;3.30;;;;;;;38.55;19.54;100418.69;4202727;28;21185;-73
2022/06/27 07:19:53;;;;;;;11.05;3.13;;;;;;;37.87;20.74;100414.94;4193655;28;20237;-72
2022/06/27 07:22:20;;;;;;;6.20;2.72;;;;;;;37.40;20.85;100412.81;4198049;28;23739;-73
2022/06/27 07:24:47;;;;;;;9.00;2.70;;;;;;;36.48;22.01;100404.41;4201164;28;20368;-71
2022/06/27 07:27:15;;;;;;;8.98;2.55;;;;;;;35.97;22.75;100398.28;4193255;28;20310;-72
2022/06/27 07:29:42;;;;;;;11.75;2.60;;;;;;;35.41;23.47;100394.09;4196871;28;21103;-72
2022/06/27 07:32:09;;;;;;;7.13;2.85;;;;;;;33.78;25.13;100382.34;4196813;28;21612;-71
2022/06/27 07:34:36;;;;;;;5.35;2.60;;;;;;;32.66;27.04;100374.50;4202889;28;23162;-73
2022/06/27 07:37:04;;;;;;;7.25;2.67;;;;;;;32.39;27.61;100370.41;4175033;28;20284;-47
2022/06/27 07:39:30;;;;;;;5.90;2.65;;;;;;;31.71;29.02;100359.47;4184415;28;21182;-47
2022/06/27 07:41:57;;;;;;;5.18;2.47;;;;;;;30.97;30.37;100362.13;4184227;28;21465;-52
2022/06/27 07:44:24;;;;;;;3.90;2.08;;;;;;;30.82;30.56;100363.00;4202568;28;20242;-66
2022/06/27 07:46:51;;;;;;;7.90;2.97;;;;;;;30.90;30.52;100358.88;4206514;28;20240;-64
2022/06/27 07:49:18;;;;;;;3.53;2.88;;;;;;;30.84;31.57;100349.84;4192069;28;21143;-65
2022/06/27 07:51:47;;;;;;;8.85;2.58;;;;;;;30.83;30.97;100361.09;4188653;28;20816;-64
2022/06/27 07:54:14;;;;;;;8.32;2.75;;;;;;;30.77;32.10;100354.81;4181996;28;20596;-66
2022/06/27 07:56:43;;;;;;;7.50;2.92;;;;;;;31.43;30.64;100359.13;4197595;28;20279;-67
2022/06/27 07:59:28;;;;;;;6.93;2.90;;;;;;;31.33;30.85;100360.00;4193450;28;20324;-66
2022/06/27 08:01:55;;;;;;;4.97;3.25;;;;;;;31.47;30.67;100356.66;4191167;28;21712;-64
2022/06/27 08:04:23;;;;;;;9.55;2.75;;;;;;;31.34;30.28;100360.81;4195491;28;20343;-65
2022/06/27 08:06:50;;;;;;;8.85;2.80;;;;;;;31.39;29.71;100352.53;4219147;28;20676;-66
2022/06/27 08:09:21;;;;;;;7.07;3.00;;;;;;;31.53;30.46;100347.22;4225069;28;22278;-64
2022/06/27 08:11:48;;;;;;;8.57;2.97;;;;;;;31.84;29.23;100356.03;4199717;28;20233;-63
2022/06/27 08:14:18;;;;;;;6.07;2.78;;;;;;;31.98;29.10;100350.72;4218417;28;22266;-65
2022/06/27 08:16:51;;;;;;;6.40;2.70;;;;;;;31.76;29.25;100351.19;4197235;28;20244;-65
2022/06/27 08:19:23;;;;;;;3.88;2.55;;;;;;;31.65;30.24;100338.59;4221364;28;21914;-64
2022/06/27 08:21:50;;;;;;;7.07;3.00;;;;;;;31.51;29.65;100342.00;4202080;28;21072;-66
2022/06/27 08:24:16;;;;;;;8.43;2.92;;;;;;;31.26;29.94;100345.75;4215507;28;20236;-65
2022/06/27 08:26:46;;;;;;;6.43;2.80;;;;;;;31.64;29.49;100342.47;4212194;28;20237;-64
2022/06/27 08:29:14;;;;;;;3.90;2.40;;;;;;;31.88;29.46;100339.78;4206646;28;27061;-64
2022/06/27 08:31:41;;;;;;;9.38;2.80;;;;;;;32.05;30.18;100342.94;4209798;28;20659;-66
2022/06/27 08:34:08;;;;;;;9.02;2.90;;;;;;;31.67;30.19;100342.72;4193381;28;20451;-65
2022/06/27 08:36:36;;;;;;;8.18;2.55;;;;;;;31.87;29.69;100336.22;4192680;28;20305;-64
2022/06/27 08:39:11;;;;;;;8.15;2.78;;;;;;;31.99;28.81;100343.31;4200954;28;20454;-64
2022/06/27 08:41:39;;;;;;;5.28;2.85;;;;;;;32.14;30.32;100340.38;4225010;28;20530;-67
2022/06/27 08:44:07;;;;;;;4.55;2.50;;;;;;;32.27;28.89;100333.38;4193483;28;20244;-63
2022/06/27 08:46:34;;;;;;;7.35;2.60;;;;;;;31.37;29.61;100315.41;4203310;28;20254;-65
2022/06/27 08:49:03;;;;;;;4.93;2.50;;;;;;;31.00;30.40;100327.75;4210093;28;20238;-65
2022/06/27 08:51:31;;;;;;;9.15;2.60;;;;;;;31.07;30.59;100317.28;4193161;28;20225;-66
2022/06/27 08:53:58;;;;;;;7.10;2.80;;;;;;;31.38;31.10;100319.84;4218749;28;20234;-66
2022/06/27 08:56:26;;;;;;;8.45;2.58;;;;;;;31.52;30.91;100327.16;4224454;28;20395;-64
2022/06/27 08:58:55;;;;;;;4.20;2.50;;;;;;;30.97;30.55;100326.41;4223570;28;21281;-65
2022/06/27 09:01:23;;;;;;;5.47;2.58;;;;;;;30.56;32.12;100317.53;4207678;28;20232;-65
2022/06/27 09:04:06;;;;;;;3.42;2.40;;;;;;;30.31;32.20;100304.72;4216367;28;20234;-65
2022/06/27 09:06:51;;;;;;;6.30;2.85;;;;;;;30.59;31.88;100306.78;4232576;28;20311;-65
2022/06/27 09:09:18;;;;;;;5.15;2.70;;;;;;;30.74;31.27;100303.13;4193868;28;21580;-64
2022/06/27 09:11:49;;;;;;;6.97;2.90;;;;;;;30.95;31.63;100301.13;4217834;28;20331;-65
2022/06/27 09:14:36;;;;;;;5.97;2.42;;;;;;;31.37;30.11;100294.25;4210426;28;20314;-65
2022/06/27 09:17:09;;;;;;;4.32;1.98;;;;;;;31.67;28.33;100304.19;4215376;28;21766;-64
2022/06/27 09:19:53;;;;;;;6.60;2.17;;;;;;;30.97;28.51;100304.41;4208697;28;20310;-64
2022/06/27 09:22:23;;;;;;;7.40;2.40;;;;;;;30.90;28.60;100296.50;4206499;28;20228;-65
2022/06/27 09:25:13;;;;;;;4.28;2.00;;;;;;;30.66;28.12;100296.31;4194667;28;20274;-66
2022/06/27 09:27:50;;;;;;;5.82;2.20;;;;;;;31.07;28.84;100290.63;4206284;28;20240;-67
2022/06/27 09:30:22;;;;;;;7.15;2.40;;;;;;;30.99;28.79;100276.66;4217438;28;20669;-64
2022/06/27 09:32:54;;;;;;;6.05;2.10;;;;;;;30.55;29.53;100289.22;4208310;28;20231;-66
2022/06/27 09:35:23;;;;;;;6.07;2.25;;;;;;;30.12;29.98;100286.06;4202891;28;21630;-65
2022/06/27 09:37:55;;;;;;;5.82;2.10;;;;;;;30.08;29.58;100288.53;4214006;28;20238;-65
2022/06/27 09:40:23;;;;;;;9.93;2.58;;;;;;;30.22;29.37;100290.72;4223948;28;20303;-65
2022/06/27 09:42:52;;;;;;;4.90;2.20;;;;;;;30.43;29.01;100280.50;4215528;28;26603;-67
2022/06/27 09:45:22;;;;;;;6.28;2.20;;;;;;;30.50;28.88;100279.09;4207543;28;21732;-65
2022/06/27 09:47:49;;;;;;;5.65;2.47;;;;;;;30.47;29.73;100276.09;4198250;28;20662;-66
2022/06/27 09:50:16;;;;;;;10.32;2.78;;;;;;;30.66;30.37;100277.09;4210431;28;21501;-65
2022/06/27 09:52:43;;;;;;;11.13;2.47;;;;;;;30.80;30.50;100279.22;4182276;28;20252;-65
2022/06/27 09:55:09;;;;;;;5.95;2.92;;;;;;;30.98;30.10;100278.59;4193480;28;20512;-65
2022/06/27 09:57:37;;;;;;;11.43;2.50;;;;;;;31.12;30.49;100276.84;4206614;28;20228;-64
2022/06/27 10:00:06;;;;;;;7.50;2.45;;;;;;;31.22;30.18;100286.94;4201085;28;20240;-64
2022/06/27 10:02:33;;;;;;;7.88;2.83;;;;;;;30.91;30.49;100278.91;4193019;28;20237;-71
2022/06/27 10:05:00;;;;;;;6.38;2.42;;;;;;;30.52;30.77;100278.00;4190342;28;20237;-64
2022/06/27 10:07:27;;;;;;;6.80;2.70;;;;;;;30.47;31.36;100270.59;4190537;28;20746;-64
2022/06/27 10:09:54;;;;;;;7.80;2.88;;;;;;;30.37;31.67;100270.63;4209946;28;21364;-64
2022/06/27 10:12:27;;;;;;;7.20;2.72;;;;;;;30.38;31.40;100266.81;4206647;28;21450;-66
2022/06/27 10:15:12;;;;;;;7.80;2.80;;;;;;;30.27;31.52;100264.09;4205752;28;21190;-65
2022/06/27 10:17:59;;;;;;;6.72;2.83;;;;;;;30.13;31.88;100271.25;4225735;28;20229;-67
2022/06/27 10:20:26;;;;;;;12.50;2.92;;;;;;;30.00;31.62;100255.38;4196032;28;20241;-64
2022/06/27 10:23:11;;;;;;;12.20;2.60;;;;;;;29.71;32.69;100258.72;4204280;28;20238;-66
2022/06/27 10:25:42;;;;;;;6.22;2.80;;;;;;;29.82;32.34;100263.09;4198503;28;21271;-63
2022/06/27 10:28:14;;;;;;;5.80;2.47;;;;;;;29.83;31.86;100256.53;4222545;28;20232;-64
2022/06/27 10:30:46;;;;;;;6.10;2.47;;;;;;;29.54;32.12;100253.50;4199515;28;20246;-64
2022/06/27 10:33:19;;;;;;;9.57;3.03;;;;;;;29.52;32.01;100252.13;4201802;28;20656;-64
2022/06/27 10:38:39;;;;;;;7.05;2.58;;;;;;;29.65;31.95;100262.56;4215251;28;21523;-66
2022/06/27 10:41:10;;;;;;;3.75;2.30;;;;;;;29.79;32.23;100252.69;4199896;28;20291;-65
2022/06/27 10:43:45;;;;;;;4.53;2.53;;;;;;;29.77;32.07;100251.31;4225963;28;20265;-64
2022/06/27 10:46:13;;;;;;;5.70;2.72;;;;;;;29.80;32.29;100259.78;4201113;28;20256;-65
2022/06/27 10:48:42;;;;;;;7.47;2.97;;;;;;;29.50;32.33;100266.13;4200441;28;20227;-65
2022/06/27 10:51:18;;;;;;;8.32;2.90;;;;;;;29.65;32.29;100262.56;4203992;28;20370;-67
2022/06/27 10:53:45;;;;;;;5.75;2.80;;;;;;;29.28;33.30;100254.63;4210253;28;20232;-64
2022/06/27 10:56:39;;;;;;;4.88;3.00;;;;;;;29.19;32.89;100257.06;4208952;28;20240;-65
2022/06/27 10:59:27;;;;;;;10.93;2.67;;;;;;;29.21;33.30;100260.38;4206642;28;20260;-66
2022/06/27 11:01:53;;;;;;;6.78;2.58;;;;;;;29.30;33.30;100253.25;4204400;28;20500;-65
2022/06/27 11:04:31;;;;;;;6.45;2.72;;;;;;;29.64;33.37;100258.16;4218149;28;20296;-65
2022/06/27 11:07:05;;;;;;;6.50;2.70;;;;;;;29.83;32.67;100261.19;4232298;28;20228;-64
2022/06/27 11:09:45;;;;;;;9.20;2.80;;;;;;;29.31;33.35;100243.91;4216650;28;20228;-64
2022/06/27 11:12:17;;;;;;;7.18;2.88;;;;;;;29.39;32.38;100246.13;4194261;28;20257;-63
2022/06/27 11:14:56;;;;;;;9.57;2.72;;;;;;;29.29;33.10;100243.38;4238794;28;20225;-64
2022/06/27 11:17:41;;;;;;;3.80;2.50;;;;;;;29.21;33.49;100232.97;4226500;28;20242;-65
2022/06/27 11:20:25;;;;;;;6.70;3.05;;;;;;;29.57;33.15;100232.94;4206516;28;21262;-67
2022/06/27 11:23:08;;;;;;;6.68;2.72;;;;;;;29.86;32.35;100239.50;4236324;28;20480;-64
2022/06/27 11:25:38;;;;;;;6.05;2.80;;;;;;;29.95;32.02;100230.72;4242862;28;20311;-66
2022/06/27 11:33:39;;;;;;;4.78;2.72;;;;;;;30.05;31.75;100226.00;4221445;28;20626;-64
2022/06/27 11:36:06;;;;;;;5.68;2.90;;;;;;;30.29;31.76;100226.19;4225913;28;20275;-65
2022/06/27 11:38:45;;;;;;;5.75;2.58;;;;;;;30.73;30.49;100232.00;4219051;28;20239;-64